Aviation Digital Data Service (ADDS)

Output produced by METARs form (1814 UTC 21 September 2019)
found at http://aviationweather.gov/metar/data/
 
KHUM 211744Z 2118/2218 10014KT P6SM OVC050 
     FM212100 09008KT P6SM VCTS SCT030CB SCT080 
     FM220000 10007KT P6SM FEW030 FEW090 
     FM220500 VRB04KT P6SM FEW030 FEW250